sensor_id;sensor_type;location;lat;lon;timestamp;pressure;altitude;pressure_sealevel;temperature;humidity
71857;BME280;63344;46.980;28.882;2023-07-09T00:02:01;100575.84;;;18.47;71.21
71857;BME280;63344;46.980;28.882;2023-07-09T00:04:29;100575.84;;;18.47;70.99
71857;BME280;63344;46.980;28.882;2023-07-09T00:07:00;100574.06;;;18.47;70.97
71857;BME280;63344;46.980;28.882;2023-07-09T00:09:29;100578.44;;;18.48;71.02
71857;BME280;63344;46.980;28.882;2023-07-09T00:11:56;100582.97;;;18.48;70.73
71857;BME280;63344;46.980;28.882;2023-07-09T00:14:24;100587.25;;;18.50;70.32
71857;BME280;63344;46.980;28.882;2023-07-09T00:16:51;100589.84;;;18.52;70.08
71857;BME280;63344;46.980;28.882;2023-07-09T00:19:21;100581.53;;;18.55;70.08
71857;BME280;63344;46.980;28.882;2023-07-09T00:21:51;100583.16;;;18.58;69.52
71857;BME280;63344;46.980;28.882;2023-07-09T00:24:20;100576.47;;;18.63;69.25
71857;BME280;63344;46.980;28.882;2023-07-09T00:26:50;100586.25;;;18.64;68.91
71857;BME280;63344;46.980;28.882;2023-07-09T00:29:18;100581.41;;;18.69;69.01
71857;BME280;63344;46.980;28.882;2023-07-09T00:31:45;100578.25;;;18.76;67.86
71857;BME280;63344;46.980;28.882;2023-07-09T00:34:15;100578.16;;;18.77;68.00
71857;BME280;63344;46.980;28.882;2023-07-09T00:36:44;100574.16;;;18.83;67.01
71857;BME280;63344;46.980;28.882;2023-07-09T00:39:20;100575.78;;;18.85;66.66
71857;BME280;63344;46.980;28.882;2023-07-09T00:41:50;100574.69;;;18.88;66.63
71857;BME280;63344;46.980;28.882;2023-07-09T00:44:31;100581.56;;;18.92;66.20
71857;BME280;63344;46.980;28.882;2023-07-09T00:49:33;100577.09;;;19.04;65.02
71857;BME280;63344;46.980;28.882;2023-07-09T00:54:46;100590.94;;;19.10;64.52
71857;BME280;63344;46.980;28.882;2023-07-09T00:57:16;100593.53;;;19.12;64.19
71857;BME280;63344;46.980;28.882;2023-07-09T00:59:49;100574.91;;;19.09;64.13
71857;BME280;63344;46.980;28.882;2023-07-09T01:02:17;100587.03;;;19.15;64.06
71857;BME280;63344;46.980;28.882;2023-07-09T01:04:57;100587.16;;;19.13;63.88
71857;BME280;63344;46.980;28.882;2023-07-09T01:07:28;100568.38;;;19.00;64.05
71857;BME280;63344;46.980;28.882;2023-07-09T01:09:56;100593.63;;;19.10;63.76
71857;BME280;63344;46.980;28.882;2023-07-09T01:12:24;100593.88;;;19.07;63.94
71857;BME280;63344;46.980;28.882;2023-07-09T01:14:54;100590.56;;;19.04;63.77
71857;BME280;63344;46.980;28.882;2023-07-09T01:17:27;100584.78;;;18.97;63.72
71857;BME280;63344;46.980;28.882;2023-07-09T01:19:56;100586.72;;;18.95;64.17
71857;BME280;63344;46.980;28.882;2023-07-09T01:22:25;100592.13;;;18.95;64.05
71857;BME280;63344;46.980;28.882;2023-07-09T01:25:02;100590.59;;;18.91;63.68
71857;BME280;63344;46.980;28.882;2023-07-09T01:30:08;100603.56;;;18.86;64.03
71857;BME280;63344;46.980;28.882;2023-07-09T01:32:37;100597.41;;;18.84;63.80
71857;BME280;63344;46.980;28.882;2023-07-09T01:35:06;100593.41;;;18.77;63.90
71857;BME280;63344;46.980;28.882;2023-07-09T01:37:36;100599.38;;;18.82;64.12
71857;BME280;63344;46.980;28.882;2023-07-09T01:40:06;100592.47;;;18.78;64.02
71857;BME280;63344;46.980;28.882;2023-07-09T01:42:55;100596.66;;;18.69;63.79
71857;BME280;63344;46.980;28.882;2023-07-09T01:45:25;100603.69;;;18.71;63.98
71857;BME280;63344;46.980;28.882;2023-07-09T01:47:53;100618.31;;;18.67;64.28
71857;BME280;63344;46.980;28.882;2023-07-09T01:50:23;100605.53;;;18.58;64.48
71857;BME280;63344;46.980;28.882;2023-07-09T01:52:53;100608.00;;;18.61;64.24
71857;BME280;63344;46.980;28.882;2023-07-09T01:55:21;100616.28;;;18.58;64.41
71857;BME280;63344;46.980;28.882;2023-07-09T01:57:48;100605.75;;;18.55;64.49
71857;BME280;63344;46.980;28.882;2023-07-09T02:00:18;100615.75;;;18.53;64.96
71857;BME280;63344;46.980;28.882;2023-07-09T02:02:46;100609.63;;;18.51;64.81
71857;BME280;63344;46.980;28.882;2023-07-09T02:05:16;100600.94;;;18.47;64.80
71857;BME280;63344;46.980;28.882;2023-07-09T02:07:45;100610.81;;;18.47;65.04
71857;BME280;63344;46.980;28.882;2023-07-09T02:10:15;100614.69;;;18.43;64.91
71857;BME280;63344;46.980;28.882;2023-07-09T02:12:44;100611.50;;;18.38;65.02
71857;BME280;63344;46.980;28.882;2023-07-09T02:15:12;100622.16;;;18.39;65.05
71857;BME280;63344;46.980;28.882;2023-07-09T02:17:42;100615.25;;;18.35;64.97
71857;BME280;63344;46.980;28.882;2023-07-09T02:20:10;100622.47;;;18.35;65.48
71857;BME280;63344;46.980;28.882;2023-07-09T02:22:38;100623.56;;;18.32;65.39
71857;BME280;63344;46.980;28.882;2023-07-09T02:25:06;100623.56;;;18.32;65.62
71857;BME280;63344;46.980;28.882;2023-07-09T02:27:36;100607.84;;;18.26;65.21
71857;BME280;63344;46.980;28.882;2023-07-09T02:30:06;100613.34;;;18.24;65.24
71857;BME280;63344;46.980;28.882;2023-07-09T02:32:34;100626.44;;;18.29;65.20
71857;BME280;63344;46.980;28.882;2023-07-09T02:35:02;100631.22;;;18.25;65.15
71857;BME280;63344;46.980;28.882;2023-07-09T02:37:29;100638.94;;;18.30;65.08
71857;BME280;63344;46.980;28.882;2023-07-09T02:39:57;100638.09;;;18.29;65.14
71857;BME280;63344;46.980;28.882;2023-07-09T02:42:24;100621.41;;;18.24;65.05
71857;BME280;63344;46.980;28.882;2023-07-09T02:44:51;100628.53;;;18.25;64.85
71857;BME280;63344;46.980;28.882;2023-07-09T02:47:19;100631.53;;;18.34;64.47
71857;BME280;63344;46.980;28.882;2023-07-09T02:49:47;100631.94;;;18.40;64.56
71857;BME280;63344;46.980;28.882;2023-07-09T02:52:16;100626.75;;;18.37;64.29
71857;BME280;63344;46.980;28.882;2023-07-09T02:54:43;100631.06;;;18.40;63.79
71857;BME280;63344;46.980;28.882;2023-07-09T02:57:11;100619.03;;;18.33;63.79
71857;BME280;63344;46.980;28.882;2023-07-09T02:59:38;100628.84;;;18.34;63.81
71857;BME280;63344;46.980;28.882;2023-07-09T03:02:05;100637.00;;;18.32;63.90
71857;BME280;63344;46.980;28.882;2023-07-09T03:04:33;100635.16;;;18.33;64.04
71857;BME280;63344;46.980;28.882;2023-07-09T03:07:00;100632.47;;;18.33;63.93
71857;BME280;63344;46.980;28.882;2023-07-09T03:09:29;100628.09;;;18.31;64.27
71857;BME280;63344;46.980;28.882;2023-07-09T03:11:56;100622.91;;;18.28;63.78
71857;BME280;63344;46.980;28.882;2023-07-09T03:14:24;100619.88;;;18.33;64.26
71857;BME280;63344;46.980;28.882;2023-07-09T03:16:52;100628.69;;;18.35;63.92
71857;BME280;63344;46.980;28.882;2023-07-09T03:19:19;100618.28;;;18.30;63.87
71857;BME280;63344;46.980;28.882;2023-07-09T03:21:47;100626.00;;;18.35;64.15
71857;BME280;63344;46.980;28.882;2023-07-09T03:24:14;100620.75;;;18.34;63.86
71857;BME280;63344;46.980;28.882;2023-07-09T03:26:46;100625.81;;;18.38;63.67
71857;BME280;63344;46.980;28.882;2023-07-09T03:29:14;100633.13;;;18.36;63.78
71857;BME280;63344;46.980;28.882;2023-07-09T03:31:44;100633.88;;;18.38;63.78
71857;BME280;63344;46.980;28.882;2023-07-09T03:34:12;100640.00;;;18.40;63.50
71857;BME280;63344;46.980;28.882;2023-07-09T03:36:41;100635.47;;;18.41;63.43
71857;BME280;63344;46.980;28.882;2023-07-09T03:39:09;100642.47;;;18.43;63.57
71857;BME280;63344;46.980;28.882;2023-07-09T03:41:36;100636.00;;;18.46;63.36
71857;BME280;63344;46.980;28.882;2023-07-09T03:44:03;100629.78;;;18.45;63.86
71857;BME280;63344;46.980;28.882;2023-07-09T03:46:31;100638.69;;;18.46;63.69
71857;BME280;63344;46.980;28.882;2023-07-09T03:49:00;100633.09;;;18.49;63.75
71857;BME280;63344;46.980;28.882;2023-07-09T03:51:28;100631.28;;;18.49;63.39
71857;BME280;63344;46.980;28.882;2023-07-09T03:53:55;100633.72;;;18.52;63.31
71857;BME280;63344;46.980;28.882;2023-07-09T03:56:22;100633.53;;;18.56;63.71
71857;BME280;63344;46.980;28.882;2023-07-09T03:58:50;100627.50;;;18.52;63.38
71857;BME280;63344;46.980;28.882;2023-07-09T04:01:17;100628.03;;;18.57;63.31
71857;BME280;63344;46.980;28.882;2023-07-09T04:03:46;100637.81;;;18.58;63.29
71857;BME280;63344;46.980;28.882;2023-07-09T04:06:13;100631.34;;;18.61;63.32
71857;BME280;63344;46.980;28.882;2023-07-09T04:08:43;100635.66;;;18.63;63.17
71857;BME280;63344;46.980;28.882;2023-07-09T04:11:13;100640.81;;;18.66;62.91
71857;BME280;63344;46.980;28.882;2023-07-09T04:13:41;100641.56;;;18.68;62.90
71857;BME280;63344;46.980;28.882;2023-07-09T04:16:10;100638.53;;;18.73;62.66
71857;BME280;63344;46.980;28.882;2023-07-09T04:18:37;100651.59;;;18.79;62.13
71857;BME280;63344;46.980;28.882;2023-07-09T04:21:05;100649.41;;;18.84;62.58
71857;BME280;63344;46.980;28.882;2023-07-09T04:23:33;100645.06;;;18.95;62.45
71857;BME280;63344;46.980;28.882;2023-07-09T04:26:02;100640.31;;;18.98;62.12
71857;BME280;63344;46.980;28.882;2023-07-09T04:28:32;100645.50;;;19.01;62.04
71857;BME280;63344;46.980;28.882;2023-07-09T04:30:59;100647.59;;;19.09;62.05
71857;BME280;63344;46.980;28.882;2023-07-09T04:33:26;100644.31;;;19.17;61.95
71857;BME280;63344;46.980;28.882;2023-07-09T04:35:55;100645.94;;;19.43;61.96
71857;BME280;63344;46.980;28.882;2023-07-09T04:38:22;100637.31;;;19.98;60.93
71857;BME280;63344;46.980;28.882;2023-07-09T04:40:52;100645.09;;;20.70;60.63
71857;BME280;63344;46.980;28.882;2023-07-09T04:43:19;100646.16;;;21.34;58.61
71857;BME280;63344;46.980;28.882;2023-07-09T04:45:47;100643.28;;;22.00;58.73
71857;BME280;63344;46.980;28.882;2023-07-09T04:48:15;100642.50;;;22.40;54.11
71857;BME280;63344;46.980;28.882;2023-07-09T04:50:43;100646.47;;;22.66;54.97
71857;BME280;63344;46.980;28.882;2023-07-09T04:53:10;100640.03;;;23.08;52.79
71857;BME280;63344;46.980;28.882;2023-07-09T04:55:39;100646.34;;;23.28;51.64
71857;BME280;63344;46.980;28.882;2023-07-09T04:58:06;100646.22;;;23.59;52.32
71857;BME280;63344;46.980;28.882;2023-07-09T05:00:34;100649.19;;;23.65;49.86
71857;BME280;63344;46.980;28.882;2023-07-09T05:03:01;100644.78;;;23.35;50.51
71857;BME280;63344;46.980;28.882;2023-07-09T05:05:31;100652.03;;;23.05;50.28
71857;BME280;63344;46.980;28.882;2023-07-09T05:07:59;100652.38;;;22.51;50.67
71857;BME280;63344;46.980;28.882;2023-07-09T05:10:26;100637.19;;;22.28;51.55
71857;BME280;63344;46.980;28.882;2023-07-09T05:12:55;100649.34;;;22.13;52.05
71857;BME280;63344;46.980;28.882;2023-07-09T05:15:23;100640.13;;;21.95;52.23
71857;BME280;63344;46.980;28.882;2023-07-09T05:17:50;100639.19;;;21.84;52.88
71857;BME280;63344;46.980;28.882;2023-07-09T05:20:19;100652.56;;;21.86;52.97
71857;BME280;63344;46.980;28.882;2023-07-09T05:22:49;100642.06;;;21.93;53.12
71857;BME280;63344;46.980;28.882;2023-07-09T05:25:18;100645.91;;;21.90;53.16
71857;BME280;63344;46.980;28.882;2023-07-09T05:27:45;100649.34;;;21.92;53.05
71857;BME280;63344;46.980;28.882;2023-07-09T05:30:13;100660.44;;;21.89;53.46
71857;BME280;63344;46.980;28.882;2023-07-09T05:32:40;100663.84;;;21.70;52.60
71857;BME280;63344;46.980;28.882;2023-07-09T05:35:10;100648.78;;;21.56;53.38
71857;BME280;63344;46.980;28.882;2023-07-09T05:37:37;100657.81;;;21.45;53.54
71857;BME280;63344;46.980;28.882;2023-07-09T05:40:07;100654.38;;;21.43;53.87
71857;BME280;63344;46.980;28.882;2023-07-09T05:42:34;100656.09;;;21.44;53.98
71857;BME280;63344;46.980;28.882;2023-07-09T05:45:04;100656.13;;;21.33;53.77
71857;BME280;63344;46.980;28.882;2023-07-09T05:47:31;100662.97;;;21.37;54.10
71857;BME280;63344;46.980;28.882;2023-07-09T05:50:00;100663.50;;;21.31;53.99
71857;BME280;63344;46.980;28.882;2023-07-09T05:52:29;100659.69;;;21.22;53.88
71857;BME280;63344;46.980;28.882;2023-07-09T05:54:58;100665.72;;;21.15;54.35
71857;BME280;63344;46.980;28.882;2023-07-09T05:57:26;100664.25;;;21.22;54.23
71857;BME280;63344;46.980;28.882;2023-07-09T05:59:54;100666.09;;;21.21;54.27
71857;BME280;63344;46.980;28.882;2023-07-09T06:02:21;100677.38;;;21.26;54.22
71857;BME280;63344;46.980;28.882;2023-07-09T06:04:49;100668.81;;;21.21;54.23
71857;BME280;63344;46.980;28.882;2023-07-09T06:07:19;100673.81;;;21.26;54.19
71857;BME280;63344;46.980;28.882;2023-07-09T06:09:50;100688.78;;;21.30;53.76
71857;BME280;63344;46.980;28.882;2023-07-09T06:12:17;100682.41;;;21.31;54.13
71857;BME280;63344;46.980;28.882;2023-07-09T06:14:46;100682.34;;;21.42;54.18
71857;BME280;63344;46.980;28.882;2023-07-09T06:17:14;100682.22;;;21.55;54.37
71857;BME280;63344;46.980;28.882;2023-07-09T06:19:42;100680.97;;;21.59;53.86
71857;BME280;63344;46.980;28.882;2023-07-09T06:22:09;100678.66;;;21.55;53.63
71857;BME280;63344;46.980;28.882;2023-07-09T06:24:45;100685.91;;;21.54;53.56
71857;BME280;63344;46.980;28.882;2023-07-09T06:27:19;100687.47;;;21.57;53.80
71857;BME280;63344;46.980;28.882;2023-07-09T06:29:47;100672.88;;;21.59;53.56
71857;BME280;63344;46.980;28.882;2023-07-09T06:32:14;100664.97;;;21.67;54.53
71857;BME280;63344;46.980;28.882;2023-07-09T06:34:41;100671.31;;;21.78;54.35
71857;BME280;63344;46.980;28.882;2023-07-09T06:37:08;100665.97;;;21.87;54.05
71857;BME280;63344;46.980;28.882;2023-07-09T06:39:36;100668.28;;;21.92;54.04
71857;BME280;63344;46.980;28.882;2023-07-09T06:42:04;100669.59;;;21.98;53.58
71857;BME280;63344;46.980;28.882;2023-07-09T06:44:32;100670.59;;;21.97;53.44
71857;BME280;63344;46.980;28.882;2023-07-09T06:46:59;100661.47;;;21.98;51.88
71857;BME280;63344;46.980;28.882;2023-07-09T06:49:28;100665.75;;;22.00;52.77
71857;BME280;63344;46.980;28.882;2023-07-09T06:51:55;100657.81;;;21.99;51.69
71857;BME280;63344;46.980;28.882;2023-07-09T06:54:23;100651.31;;;22.11;51.99
71857;BME280;63344;46.980;28.882;2023-07-09T06:56:53;100653.75;;;22.14;51.89
71857;BME280;63344;46.980;28.882;2023-07-09T06:59:23;100661.59;;;22.17;50.72
71857;BME280;63344;46.980;28.882;2023-07-09T07:01:50;100654.75;;;22.13;50.97
71857;BME280;63344;46.980;28.882;2023-07-09T07:04:18;100656.91;;;22.19;51.24
71857;BME280;63344;46.980;28.882;2023-07-09T07:06:45;100648.50;;;22.22;51.82
71857;BME280;63344;46.980;28.882;2023-07-09T07:09:17;100661.16;;;22.33;51.91
71857;BME280;63344;46.980;28.882;2023-07-09T07:11:44;100655.63;;;22.35;50.58
71857;BME280;63344;46.980;28.882;2023-07-09T07:14:12;100654.34;;;22.39;50.34
71857;BME280;63344;46.980;28.882;2023-07-09T07:16:39;100644.38;;;22.39;50.46
71857;BME280;63344;46.980;28.882;2023-07-09T07:19:07;100650.81;;;22.48;50.92
71857;BME280;63344;46.980;28.882;2023-07-09T07:21:34;100649.88;;;22.59;50.70
71857;BME280;63344;46.980;28.882;2023-07-09T07:24:01;100657.75;;;22.72;50.14
71857;BME280;63344;46.980;28.882;2023-07-09T07:26:30;100666.03;;;22.80;50.17
71857;BME280;63344;46.980;28.882;2023-07-09T07:28:57;100662.34;;;22.81;49.03
71857;BME280;63344;46.980;28.882;2023-07-09T07:31:24;100660.34;;;22.83;48.96
71857;BME280;63344;46.980;28.882;2023-07-09T07:33:52;100661.78;;;22.87;48.81
71857;BME280;63344;46.980;28.882;2023-07-09T07:36:19;100652.81;;;22.96;48.62
71857;BME280;63344;46.980;28.882;2023-07-09T07:38:58;100658.03;;;23.09;49.37
71857;BME280;63344;46.980;28.882;2023-07-09T07:41:25;100661.47;;;23.21;48.79
71857;BME280;63344;46.980;28.882;2023-07-09T07:43:54;100674.00;;;23.22;48.02
71857;BME280;63344;46.980;28.882;2023-07-09T07:46:21;100647.34;;;23.17;46.16
71857;BME280;63344;46.980;28.882;2023-07-09T07:48:49;100642.47;;;23.11;46.24
71857;BME280;63344;46.980;28.882;2023-07-09T07:51:21;100659.03;;;23.18;46.50
71857;BME280;63344;46.980;28.882;2023-07-09T07:53:49;100652.47;;;23.20;46.42
71857;BME280;63344;46.980;28.882;2023-07-09T07:56:17;100658.59;;;23.22;47.08
71857;BME280;63344;46.980;28.882;2023-07-09T07:58:45;100662.19;;;23.33;47.17
71857;BME280;63344;46.980;28.882;2023-07-09T08:01:13;100657.19;;;23.48;46.83
71857;BME280;63344;46.980;28.882;2023-07-09T08:03:41;100659.47;;;23.62;46.06
71857;BME280;63344;46.980;28.882;2023-07-09T08:06:09;100660.66;;;23.79;44.98
71857;BME280;63344;46.980;28.882;2023-07-09T08:08:36;100650.66;;;23.79;44.90
71857;BME280;63344;46.980;28.882;2023-07-09T08:11:06;100666.06;;;23.89;45.14
71857;BME280;63344;46.980;28.882;2023-07-09T08:13:37;100679.47;;;24.00;45.02
71857;BME280;63344;46.980;28.882;2023-07-09T08:16:06;100655.34;;;23.97;44.04
71857;BME280;63344;46.980;28.882;2023-07-09T08:18:38;100653.75;;;24.04;45.17
71857;BME280;63344;46.980;28.882;2023-07-09T08:21:05;100661.88;;;24.14;43.78
71857;BME280;63344;46.980;28.882;2023-07-09T08:23:33;100655.72;;;24.12;43.82
71857;BME280;63344;46.980;28.882;2023-07-09T08:26:02;100654.03;;;24.01;42.54
71857;BME280;63344;46.980;28.882;2023-07-09T08:28:31;100651.34;;;23.91;42.67
71857;BME280;63344;46.980;28.882;2023-07-09T08:30:58;100665.34;;;23.87;43.18
71857;BME280;63344;46.980;28.882;2023-07-09T08:33:25;100667.28;;;24.14;43.87
71857;BME280;63344;46.980;28.882;2023-07-09T08:35:53;100662.16;;;24.48;43.73
71857;BME280;63344;46.980;28.882;2023-07-09T08:38:22;100646.31;;;25.36;42.30
71857;BME280;63344;46.980;28.882;2023-07-09T08:40:58;100658.38;;;25.96;40.09
71857;BME280;63344;46.980;28.882;2023-07-09T08:43:50;100655.16;;;26.18;39.03
71857;BME280;63344;46.980;28.882;2023-07-09T08:48:54;100651.44;;;26.88;36.43
71857;BME280;63344;46.980;28.882;2023-07-09T08:51:43;100651.63;;;27.03;36.63
71857;BME280;63344;46.980;28.882;2023-07-09T08:54:31;100683.06;;;27.24;35.37
71857;BME280;63344;46.980;28.882;2023-07-09T08:57:02;100680.25;;;27.66;35.29
71857;BME280;63344;46.980;28.882;2023-07-09T08:59:36;100662.31;;;28.13;34.26
71857;BME280;63344;46.980;28.882;2023-07-09T09:02:05;100676.13;;;28.19;33.23
71857;BME280;63344;46.980;28.882;2023-07-09T09:04:44;100670.88;;;27.93;33.16
71857;BME280;63344;46.980;28.882;2023-07-09T09:07:44;100668.28;;;27.59;33.90
71857;BME280;63344;46.980;28.882;2023-07-09T09:10:17;100655.50;;;27.59;33.94
71857;BME280;63344;46.980;28.882;2023-07-09T09:15:31;100656.78;;;28.62;32.73
71857;BME280;63344;46.980;28.882;2023-07-09T09:18:26;100652.66;;;28.97;31.04
71857;BME280;63344;46.980;28.882;2023-07-09T09:21:37;100661.28;;;28.86;30.91
71857;BME280;63344;46.980;28.882;2023-07-09T09:28:27;100650.16;;;28.24;31.94
71857;BME280;63344;46.980;28.882;2023-07-09T09:31:44;100665.25;;;29.15;30.19
71857;BME280;63344;46.980;28.882;2023-07-09T09:34:44;100663.97;;;28.94;30.73
71857;BME280;63344;46.980;28.882;2023-07-09T09:37:26;100667.81;;;29.39;30.05
71857;BME280;63344;46.980;28.882;2023-07-09T09:40:04;100643.81;;;29.50;28.01
71857;BME280;63344;46.980;28.882;2023-07-09T09:42:56;100664.03;;;29.09;29.27
71857;BME280;63344;46.980;28.882;2023-07-09T09:45:38;100642.03;;;29.03;30.16
71857;BME280;63344;46.980;28.882;2023-07-09T09:51:55;100656.91;;;30.15;29.81
71857;BME280;63344;46.980;28.882;2023-07-09T09:54:54;100632.53;;;31.10;28.29
71857;BME280;63344;46.980;28.882;2023-07-09T10:00:50;100652.25;;;30.69;27.83
71857;BME280;63344;46.980;28.882;2023-07-09T10:03:39;100633.47;;;30.87;28.42
71857;BME280;63344;46.980;28.882;2023-07-09T10:09:55;100648.41;;;31.79;27.52
71857;BME280;63344;46.980;28.882;2023-07-09T10:13:09;100643.78;;;32.29;26.14
71857;BME280;63344;46.980;28.882;2023-07-09T10:19:49;100646.69;;;32.00;26.59
71857;BME280;63344;46.980;28.882;2023-07-09T10:23:29;100646.56;;;31.43;26.76
71857;BME280;63344;46.980;28.882;2023-07-09T10:26:22;100649.38;;;31.07;26.92
71857;BME280;63344;46.980;28.882;2023-07-09T10:29:36;100644.03;;;30.39;27.93
71857;BME280;63344;46.980;28.882;2023-07-09T10:35:48;100637.41;;;29.11;28.85
71857;BME280;63344;46.980;28.882;2023-07-09T10:38:59;100642.81;;;28.88;28.72
71857;BME280;63344;46.980;28.882;2023-07-09T10:42:15;100660.28;;;28.79;29.97
71857;BME280;63344;46.980;28.882;2023-07-09T10:45:39;100651.19;;;28.31;30.34
71857;BME280;63344;46.980;28.882;2023-07-09T10:48:55;100655.03;;;27.89;31.09
71857;BME280;63344;46.980;28.882;2023-07-09T10:52:05;100659.09;;;28.01;31.48
71857;BME280;63344;46.980;28.882;2023-07-09T10:59:30;100662.16;;;27.40;32.39
71857;BME280;63344;46.980;28.882;2023-07-09T11:02:58;100660.28;;;27.82;31.72
71857;BME280;63344;46.980;28.882;2023-07-09T11:05:43;100657.91;;;27.46;32.73
71857;BME280;63344;46.980;28.882;2023-07-09T11:08:21;100659.88;;;27.28;32.88
71857;BME280;63344;46.980;28.882;2023-07-09T11:11:40;100662.91;;;27.08;33.61
71857;BME280;63344;46.980;28.882;2023-07-09T11:14:51;100663.19;;;26.97;33.79
71857;BME280;63344;46.980;28.882;2023-07-09T11:22:17;100664.66;;;26.75;34.82
71857;BME280;63344;46.980;28.882;2023-07-09T11:32:27;100654.16;;;26.88;32.96
71857;BME280;63344;46.980;28.882;2023-07-09T11:35:20;100647.28;;;26.76;33.22
71857;BME280;63344;46.980;28.882;2023-07-09T11:41:44;100646.03;;;26.62;34.12
71857;BME280;63344;46.980;28.882;2023-07-09T11:44:32;100633.47;;;26.69;33.57
71857;BME280;63344;46.980;28.882;2023-07-09T11:51:17;100631.38;;;26.29;34.12
71857;BME280;63344;46.980;28.882;2023-07-09T11:58:04;100641.28;;;26.64;34.37
71857;BME280;63344;46.980;28.882;2023-07-09T12:01:19;100646.09;;;26.70;34.14
71857;BME280;63344;46.980;28.882;2023-07-09T12:04:15;100640.44;;;26.72;33.66
71857;BME280;63344;46.980;28.882;2023-07-09T12:07:09;100644.72;;;26.74;34.00
71857;BME280;63344;46.980;28.882;2023-07-09T12:25:24;100632.41;;;26.62;34.20
71857;BME280;63344;46.980;28.882;2023-07-09T12:28:48;100641.66;;;26.43;35.36
71857;BME280;63344;46.980;28.882;2023-07-09T12:39:04;100598.81;;;26.19;35.25
71857;BME280;63344;46.980;28.882;2023-07-09T12:41:45;100624.75;;;26.05;36.20
71857;BME280;63344;46.980;28.882;2023-07-09T12:44:25;100633.09;;;26.03;36.39
71857;BME280;63344;46.980;28.882;2023-07-09T12:47:46;100638.22;;;26.07;36.04
71857;BME280;63344;46.980;28.882;2023-07-09T12:50:36;100620.41;;;26.12;36.93
71857;BME280;63344;46.980;28.882;2023-07-09T12:53:32;100635.44;;;26.25;36.00
71857;BME280;63344;46.980;28.882;2023-07-09T12:56:41;100633.19;;;26.46;36.13
71857;BME280;63344;46.980;28.882;2023-07-09T13:03:15;100621.22;;;26.81;36.00
71857;BME280;63344;46.980;28.882;2023-07-09T13:06:29;100631.69;;;27.02;35.37
71857;BME280;63344;46.980;28.882;2023-07-09T13:13:37;100634.75;;;26.99;33.78
71857;BME280;63344;46.980;28.882;2023-07-09T13:20:16;100623.84;;;26.99;33.38
71857;BME280;63344;46.980;28.882;2023-07-09T13:27:55;100638.25;;;27.26;33.94
71857;BME280;63344;46.980;28.882;2023-07-09T13:39:12;100634.97;;;27.14;34.03
71857;BME280;63344;46.980;28.882;2023-07-09T13:42:13;100644.97;;;27.06;33.55
71857;BME280;63344;46.980;28.882;2023-07-09T13:48:24;100626.56;;;26.99;34.24
71857;BME280;63344;46.980;28.882;2023-07-09T13:51:23;100618.53;;;26.90;34.45
71857;BME280;63344;46.980;28.882;2023-07-09T13:54:28;100641.75;;;27.02;34.68
71857;BME280;63344;46.980;28.882;2023-07-09T13:57:52;100637.16;;;27.11;34.95
71857;BME280;63344;46.980;28.882;2023-07-09T14:00:29;100637.88;;;27.21;35.03
71857;BME280;63344;46.980;28.882;2023-07-09T14:03:35;100646.09;;;27.46;35.05
71857;BME280;63344;46.980;28.882;2023-07-09T14:06:20;100624.47;;;27.44;34.44
71857;BME280;63344;46.980;28.882;2023-07-09T14:09:00;100633.16;;;27.48;35.04
71857;BME280;63344;46.980;28.882;2023-07-09T14:12:00;100642.38;;;27.55;35.00
71857;BME280;63344;46.980;28.882;2023-07-09T14:14:58;100627.53;;;27.49;34.07
71857;BME280;63344;46.980;28.882;2023-07-09T14:18:23;100641.16;;;27.25;34.10
71857;BME280;63344;46.980;28.882;2023-07-09T14:25:15;100641.25;;;27.07;34.56
71857;BME280;63344;46.980;28.882;2023-07-09T14:28:21;100641.56;;;27.03;34.24
71857;BME280;63344;46.980;28.882;2023-07-09T14:31:27;100642.59;;;27.02;34.20
71857;BME280;63344;46.980;28.882;2023-07-09T14:34:19;100634.75;;;26.99;35.18
71857;BME280;63344;46.980;28.882;2023-07-09T14:37:12;100623.53;;;27.02;35.18
71857;BME280;63344;46.980;28.882;2023-07-09T14:40:13;100620.66;;;27.12;33.88
71857;BME280;63344;46.980;28.882;2023-07-09T14:43:13;100642.44;;;27.04;34.35
71857;BME280;63344;46.980;28.882;2023-07-09T14:50:11;100631.16;;;26.91;34.51
71857;BME280;63344;46.980;28.882;2023-07-09T14:53:23;100605.78;;;26.98;34.28
71857;BME280;63344;46.980;28.882;2023-07-09T14:56:39;100629.25;;;26.83;34.63
71857;BME280;63344;46.980;28.882;2023-07-09T14:59:43;100643.25;;;26.88;34.27
71857;BME280;63344;46.980;28.882;2023-07-09T15:06:20;100640.22;;;27.16;34.30
71857;BME280;63344;46.980;28.882;2023-07-09T15:09:03;100643.97;;;26.98;33.34
71857;BME280;63344;46.980;28.882;2023-07-09T15:20:04;100646.94;;;26.71;34.34
71857;BME280;63344;46.980;28.882;2023-07-09T15:23:33;100653.56;;;26.68;34.79
71857;BME280;63344;46.980;28.882;2023-07-09T15:34:38;100657.88;;;26.18;36.23
71857;BME280;63344;46.980;28.882;2023-07-09T15:37:55;100665.59;;;26.05;36.23
71857;BME280;63344;46.980;28.882;2023-07-09T15:49:23;100675.25;;;25.99;36.74
71857;BME280;63344;46.980;28.882;2023-07-09T16:00:36;100660.94;;;25.79;37.23
71857;BME280;63344;46.980;28.882;2023-07-09T16:03:04;100669.50;;;25.84;37.25
71857;BME280;63344;46.980;28.882;2023-07-09T16:05:48;100671.88;;;25.88;37.37
71857;BME280;63344;46.980;28.882;2023-07-09T16:08:15;100669.94;;;25.98;36.96
71857;BME280;63344;46.980;28.882;2023-07-09T16:11:49;100674.41;;;25.99;37.29
71857;BME280;63344;46.980;28.882;2023-07-09T16:14:54;100682.13;;;26.12;37.40